Aérodrome :
LOGIN :

S'inscrire | Disclaimer

   EN    FR    IT 

 










Légende :    VFR   VFR Marginal   IFR   IFR Intensif   IFR Très Intensif
Visi : 
Plafond : 
>= 8 km
>= 3000ft
5 à 8 km
1000 à 3000 ft
1500m à 5 km
500 à 1000 ft
800 à 1500m
200 à 500 ft
< 800m
< 200 ft
Symboles :   Orages  Brouillard  Fortes neiges  Fortes précipitations  Vent > 20 kt
SIGMETs :   Divers  Orages  Givrage  Turbulence  Onde Orograph.  Cendres Volcan.






- Altitude de l'aérodrome : 433 ft
- Code IATA : CCF


LFMK - Carcassonne

DERNIER METAR :
  • 260300Z AUTO 16004KT 9999 OVC002/// ///CB 06/05 Q1018 BECMG BKN005

METARs EXPIRÉS :
  • 260230Z AUTO VRB03KT 9000 BKN005 BKN009 OVC016 06/06 Q1018
  • 260200Z AUTO 19003KT 130V260 9999 OVC005 06/06 Q1017
  • 260130Z AUTO 17004KT 140V200 8000 OVC004 07/06 Q1017
  • 260100Z AUTO 18004KT 8000 OVC004 07/07 Q1017
  • 260030Z AUTO 17004KT 140V220 5000 BR OVC004 07/07 Q1017

TAF TAF LFMK
Valide du 26 à 03h jusqu'au 27 à 03h UTC


260200Z 2603/2703 VRB03KT 9999 BKN005
BECMG 2606/2607 SCT010
BECMG 2608/2610 27010KT
TEMPO 2610/2614 4000 -RA BKN008 BKN015
BECMG 2614/2616 SCT025



MET'MAP, la Météo Aéronautique d'un coup d'oeil ! - Copyright ORBIFLY Décembre 2007 - Disclaimer

ORBIFLY MET'MAP TEAM :

Programmation & Développement : Alexandra Zaïnal
Sur une idée originale de : Baudouin d'Aumeries
Assistance à la programmation : Marc-Olivier Méhu
Soutien technique & logistique : Manuel Goepfert

Contact : metmap@orbifly.com




SOURCES & CREDITS :

   NOAA